Terminal Aerodrome Forecast
Issued by NWS Cleveland, OH

Home | Current Version | Previous Version | Text Only | Print | Product List | Glossary Off
Versions: 1 2 3 4 5 6 7 8 9 10 11

361
FTUS41 KCLE 211730
TAFMFD
TAF
KMFD 211730Z 2118/2218 28012G18KT P6SM BKN030
     FM212000 28012G18KT P6SM BKN035
     FM220000 33006KT P6SM BKN030
     FM221000 02007KT P6SM OVC018=

USA.gov is the U.S. government's official web portal to all federal, state and local government web resources and services.